sensor_id;sensor_type;location;lat;lon;timestamp;temperature;humidity
53314;DHT22;39202;51.468;7.146;2023-04-06T00:03:16;22.90;37.50
53314;DHT22;39202;51.468;7.146;2023-04-06T00:08:18;22.90;37.60
53314;DHT22;39202;51.468;7.146;2023-04-06T00:13:21;22.90;37.60
53314;DHT22;39202;51.468;7.146;2023-04-06T00:18:24;22.90;37.70
53314;DHT22;39202;51.468;7.146;2023-04-06T00:23:26;22.80;37.60
53314;DHT22;39202;51.468;7.146;2023-04-06T00:28:28;22.80;37.60
53314;DHT22;39202;51.468;7.146;2023-04-06T00:33:32;22.80;37.60
53314;DHT22;39202;51.468;7.146;2023-04-06T00:38:34;22.80;37.70
53314;DHT22;39202;51.468;7.146;2023-04-06T00:43:35;22.80;37.70
53314;DHT22;39202;51.468;7.146;2023-04-06T00:48:38;22.80;37.70
53314;DHT22;39202;51.468;7.146;2023-04-06T00:53:41;22.70;37.70
53314;DHT22;39202;51.468;7.146;2023-04-06T00:58:42;22.70;37.70
53314;DHT22;39202;51.468;7.146;2023-04-06T01:03:46;22.70;37.80
53314;DHT22;39202;51.468;7.146;2023-04-06T01:08:50;22.70;37.80
53314;DHT22;39202;51.468;7.146;2023-04-06T01:13:52;22.60;37.80
53314;DHT22;39202;51.468;7.146;2023-04-06T01:18:55;22.60;37.80
53314;DHT22;39202;51.468;7.146;2023-04-06T01:23:58;22.60;37.80
53314;DHT22;39202;51.468;7.146;2023-04-06T01:29:00;22.60;37.90
53314;DHT22;39202;51.468;7.146;2023-04-06T01:34:02;22.50;37.90
53314;DHT22;39202;51.468;7.146;2023-04-06T01:39:05;22.50;37.80
53314;DHT22;39202;51.468;7.146;2023-04-06T01:44:07;22.50;37.90
53314;DHT22;39202;51.468;7.146;2023-04-06T01:49:09;22.50;37.90
53314;DHT22;39202;51.468;7.146;2023-04-06T01:54:12;22.50;37.90
53314;DHT22;39202;51.468;7.146;2023-04-06T01:59:13;22.50;38.00
53314;DHT22;39202;51.468;7.146;2023-04-06T02:04:15;22.50;37.90
53314;DHT22;39202;51.468;7.146;2023-04-06T02:09:18;22.40;37.90
53314;DHT22;39202;51.468;7.146;2023-04-06T02:14:20;22.40;37.90
53314;DHT22;39202;51.468;7.146;2023-04-06T02:19:22;22.40;38.00
53314;DHT22;39202;51.468;7.146;2023-04-06T02:24:25;22.40;38.00
53314;DHT22;39202;51.468;7.146;2023-04-06T02:29:26;22.40;38.00
53314;DHT22;39202;51.468;7.146;2023-04-06T02:34:28;22.40;38.00
53314;DHT22;39202;51.468;7.146;2023-04-06T02:39:32;22.30;38.00
53314;DHT22;39202;51.468;7.146;2023-04-06T02:44:33;22.30;38.00
53314;DHT22;39202;51.468;7.146;2023-04-06T02:49:35;22.30;38.00
53314;DHT22;39202;51.468;7.146;2023-04-06T02:54:38;22.30;38.10
53314;DHT22;39202;51.468;7.146;2023-04-06T02:59:40;22.30;38.10
53314;DHT22;39202;51.468;7.146;2023-04-06T03:04:42;22.30;38.10
53314;DHT22;39202;51.468;7.146;2023-04-06T03:09:45;22.20;38.10
53314;DHT22;39202;51.468;7.146;2023-04-06T03:14:47;22.30;38.10
53314;DHT22;39202;51.468;7.146;2023-04-06T03:19:49;22.20;38.10
53314;DHT22;39202;51.468;7.146;2023-04-06T03:24:52;22.20;38.10
53314;DHT22;39202;51.468;7.146;2023-04-06T03:29:54;22.20;38.20
53314;DHT22;39202;51.468;7.146;2023-04-06T03:34:55;22.20;38.20
53314;DHT22;39202;51.468;7.146;2023-04-06T03:39:58;22.20;38.20
53314;DHT22;39202;51.468;7.146;2023-04-06T03:45:00;22.10;38.20
53314;DHT22;39202;51.468;7.146;2023-04-06T03:50:02;22.20;38.20
53314;DHT22;39202;51.468;7.146;2023-04-06T03:55:07;22.10;38.20
53314;DHT22;39202;51.468;7.146;2023-04-06T04:00:10;22.10;38.30
53314;DHT22;39202;51.468;7.146;2023-04-06T04:05:12;22.10;38.30
53314;DHT22;39202;51.468;7.146;2023-04-06T04:10:16;22.10;38.30
53314;DHT22;39202;51.468;7.146;2023-04-06T04:15:17;22.10;38.40
53314;DHT22;39202;51.468;7.146;2023-04-06T04:20:19;22.10;38.40
53314;DHT22;39202;51.468;7.146;2023-04-06T04:25:23;22.10;38.50
53314;DHT22;39202;51.468;7.146;2023-04-06T04:30:24;22.10;38.60
53314;DHT22;39202;51.468;7.146;2023-04-06T04:35:26;22.00;38.50
53314;DHT22;39202;51.468;7.146;2023-04-06T04:40:29;22.10;38.60
53314;DHT22;39202;51.468;7.146;2023-04-06T04:45:31;22.10;38.70
53314;DHT22;39202;51.468;7.146;2023-04-06T04:50:33;22.10;38.60
53314;DHT22;39202;51.468;7.146;2023-04-06T04:55:36;22.10;38.60
53314;DHT22;39202;51.468;7.146;2023-04-06T05:00:38;22.10;38.70
53314;DHT22;39202;51.468;7.146;2023-04-06T05:05:39;22.10;38.70
53314;DHT22;39202;51.468;7.146;2023-04-06T05:10:43;22.10;38.70
53314;DHT22;39202;51.468;7.146;2023-04-06T05:15:45;22.10;38.70
53314;DHT22;39202;51.468;7.146;2023-04-06T05:20:47;22.10;38.60
53314;DHT22;39202;51.468;7.146;2023-04-06T05:25:51;22.10;38.60
53314;DHT22;39202;51.468;7.146;2023-04-06T05:30:53;22.10;38.70
53314;DHT22;39202;51.468;7.146;2023-04-06T05:35:55;22.10;38.70
53314;DHT22;39202;51.468;7.146;2023-04-06T05:40:58;22.10;38.70
53314;DHT22;39202;51.468;7.146;2023-04-06T05:46:00;22.10;38.80
53314;DHT22;39202;51.468;7.146;2023-04-06T05:51:01;22.10;38.80
53314;DHT22;39202;51.468;7.146;2023-04-06T05:56:08;22.20;38.80
53314;DHT22;39202;51.468;7.146;2023-04-06T06:01:09;22.20;38.80
53314;DHT22;39202;51.468;7.146;2023-04-06T06:06:11;22.10;38.80
53314;DHT22;39202;51.468;7.146;2023-04-06T06:11:14;22.20;38.80
53314;DHT22;39202;51.468;7.146;2023-04-06T06:16:17;22.20;39.00
53314;DHT22;39202;51.468;7.146;2023-04-06T06:21:19;22.20;39.10
53314;DHT22;39202;51.468;7.146;2023-04-06T06:26:22;22.30;39.30
53314;DHT22;39202;51.468;7.146;2023-04-06T06:31:24;22.40;38.70
53314;DHT22;39202;51.468;7.146;2023-04-06T06:36:26;22.50;37.80
53314;DHT22;39202;51.468;7.146;2023-04-06T06:41:29;22.50;37.10
53314;DHT22;39202;51.468;7.146;2023-04-06T06:46:31;22.50;36.40
53314;DHT22;39202;51.468;7.146;2023-04-06T06:51:33;22.50;36.20
53314;DHT22;39202;51.468;7.146;2023-04-06T06:56:36;22.50;35.70
53314;DHT22;39202;51.468;7.146;2023-04-06T07:01:38;22.50;35.60
53314;DHT22;39202;51.468;7.146;2023-04-06T07:06:40;22.50;35.70
53314;DHT22;39202;51.468;7.146;2023-04-06T07:11:43;22.60;35.50
53314;DHT22;39202;51.468;7.146;2023-04-06T07:16:45;22.70;35.50
53314;DHT22;39202;51.468;7.146;2023-04-06T07:21:47;22.70;35.20
53314;DHT22;39202;51.468;7.146;2023-04-06T07:26:51;22.70;34.80
53314;DHT22;39202;51.468;7.146;2023-04-06T07:31:53;22.80;34.70
53314;DHT22;39202;51.468;7.146;2023-04-06T07:36:55;22.90;34.80
53314;DHT22;39202;51.468;7.146;2023-04-06T07:41:58;23.00;34.70
53314;DHT22;39202;51.468;7.146;2023-04-06T07:47:00;23.00;34.20
53314;DHT22;39202;51.468;7.146;2023-04-06T07:52:02;23.10;34.30
53314;DHT22;39202;51.468;7.146;2023-04-06T07:57:05;23.20;34.40
53314;DHT22;39202;51.468;7.146;2023-04-06T08:07:09;23.30;33.70
53314;DHT22;39202;51.468;7.146;2023-04-06T08:12:12;23.40;34.20
53314;DHT22;39202;51.468;7.146;2023-04-06T08:17:14;23.50;34.00
53314;DHT22;39202;51.468;7.146;2023-04-06T08:22:16;23.50;33.90
53314;DHT22;39202;51.468;7.146;2023-04-06T08:27:19;23.60;33.90
53314;DHT22;39202;51.468;7.146;2023-04-06T08:32:21;23.70;33.60
53314;DHT22;39202;51.468;7.146;2023-04-06T08:37:23;23.60;31.80
53314;DHT22;39202;51.468;7.146;2023-04-06T08:42:26;23.50;31.70
53314;DHT22;39202;51.468;7.146;2023-04-06T08:47:30;23.70;33.00
53314;DHT22;39202;51.468;7.146;2023-04-06T08:52:32;23.90;32.90
53314;DHT22;39202;51.468;7.146;2023-04-06T08:57:36;24.10;32.70
53314;DHT22;39202;51.468;7.146;2023-04-06T09:02:39;24.20;32.40
53314;DHT22;39202;51.468;7.146;2023-04-06T09:07:41;24.10;32.40
53314;DHT22;39202;51.468;7.146;2023-04-06T09:12:44;24.00;32.20
53314;DHT22;39202;51.468;7.146;2023-04-06T09:17:46;24.00;32.00
53314;DHT22;39202;51.468;7.146;2023-04-06T09:22:48;23.90;32.20
53314;DHT22;39202;51.468;7.146;2023-04-06T09:28:00;23.90;32.10
53314;DHT22;39202;51.468;7.146;2023-04-06T09:33:02;23.90;31.60
53314;DHT22;39202;51.468;7.146;2023-04-06T09:38:11;23.90;32.20
53314;DHT22;39202;51.468;7.146;2023-04-06T09:43:23;24.00;31.70
53314;DHT22;39202;51.468;7.146;2023-04-06T09:48:26;24.00;31.90
53314;DHT22;39202;51.468;7.146;2023-04-06T09:53:31;24.10;32.10
53314;DHT22;39202;51.468;7.146;2023-04-06T09:58:36;24.20;32.00
53314;DHT22;39202;51.468;7.146;2023-04-06T10:03:45;24.20;31.90
53314;DHT22;39202;51.468;7.146;2023-04-06T10:08:50;24.30;31.70
53314;DHT22;39202;51.468;7.146;2023-04-06T10:13:57;24.40;31.20
53314;DHT22;39202;51.468;7.146;2023-04-06T10:19:13;24.50;31.00
53314;DHT22;39202;51.468;7.146;2023-04-06T10:24:17;24.50;31.20
53314;DHT22;39202;51.468;7.146;2023-04-06T10:29:21;24.50;31.70
53314;DHT22;39202;51.468;7.146;2023-04-06T10:34:22;24.50;31.90
53314;DHT22;39202;51.468;7.146;2023-04-06T10:39:25;24.60;32.20
53314;DHT22;39202;51.468;7.146;2023-04-06T10:44:29;24.70;32.30
53314;DHT22;39202;51.468;7.146;2023-04-06T10:49:30;24.80;32.50
53314;DHT22;39202;51.468;7.146;2023-04-06T10:54:32;24.90;32.70
53314;DHT22;39202;51.468;7.146;2023-04-06T10:59:35;25.00;32.90
53314;DHT22;39202;51.468;7.146;2023-04-06T11:04:37;25.10;33.00
53314;DHT22;39202;51.468;7.146;2023-04-06T11:09:39;25.20;33.00
53314;DHT22;39202;51.468;7.146;2023-04-06T11:14:52;25.20;33.10
53314;DHT22;39202;51.468;7.146;2023-04-06T11:19:54;25.30;33.20
53314;DHT22;39202;51.468;7.146;2023-04-06T11:25:05;25.50;34.40
53314;DHT22;39202;51.468;7.146;2023-04-06T11:30:09;25.60;33.40
53314;DHT22;39202;51.468;7.146;2023-04-06T11:35:13;25.70;33.40
53314;DHT22;39202;51.468;7.146;2023-04-06T11:40:21;25.80;33.50
53314;DHT22;39202;51.468;7.146;2023-04-06T11:45:26;25.80;33.40
53314;DHT22;39202;51.468;7.146;2023-04-06T11:50:32;25.80;33.50
53314;DHT22;39202;51.468;7.146;2023-04-06T11:55:37;25.80;33.40
53314;DHT22;39202;51.468;7.146;2023-04-06T12:00:43;25.80;33.30
53314;DHT22;39202;51.468;7.146;2023-04-06T12:05:45;25.80;33.30
53314;DHT22;39202;51.468;7.146;2023-04-06T12:10:47;25.80;33.30
53314;DHT22;39202;51.468;7.146;2023-04-06T12:15:50;25.80;33.30
53314;DHT22;39202;51.468;7.146;2023-04-06T12:20:52;25.70;33.30
53314;DHT22;39202;51.468;7.146;2023-04-06T12:25:54;25.70;33.40
53314;DHT22;39202;51.468;7.146;2023-04-06T12:30:57;25.70;33.60
53314;DHT22;39202;51.468;7.146;2023-04-06T12:35:59;25.70;33.60
53314;DHT22;39202;51.468;7.146;2023-04-06T12:41:00;25.70;33.70
53314;DHT22;39202;51.468;7.146;2023-04-06T12:46:04;25.70;33.90
53314;DHT22;39202;51.468;7.146;2023-04-06T12:51:06;25.70;33.90
53314;DHT22;39202;51.468;7.146;2023-04-06T12:56:12;25.70;33.90
53314;DHT22;39202;51.468;7.146;2023-04-06T13:01:15;25.70;34.10
53314;DHT22;39202;51.468;7.146;2023-04-06T13:06:18;25.70;34.10
53314;DHT22;39202;51.468;7.146;2023-04-06T13:11:20;25.70;34.10
53314;DHT22;39202;51.468;7.146;2023-04-06T13:16:25;25.70;34.20
53314;DHT22;39202;51.468;7.146;2023-04-06T13:21:27;25.70;34.20
53314;DHT22;39202;51.468;7.146;2023-04-06T13:26:29;25.70;34.30
53314;DHT22;39202;51.468;7.146;2023-04-06T13:31:32;25.70;34.30
53314;DHT22;39202;51.468;7.146;2023-04-06T13:36:33;25.70;34.50
53314;DHT22;39202;51.468;7.146;2023-04-06T13:41:35;25.70;34.50
53314;DHT22;39202;51.468;7.146;2023-04-06T13:46:38;25.70;34.60
53314;DHT22;39202;51.468;7.146;2023-04-06T13:51:40;25.70;34.60
53314;DHT22;39202;51.468;7.146;2023-04-06T13:56:42;25.70;34.70
53314;DHT22;39202;51.468;7.146;2023-04-06T14:01:45;25.70;34.60
53314;DHT22;39202;51.468;7.146;2023-04-06T14:06:47;25.60;34.40
53314;DHT22;39202;51.468;7.146;2023-04-06T14:11:49;25.60;34.40
53314;DHT22;39202;51.468;7.146;2023-04-06T14:16:52;25.50;34.30
53314;DHT22;39202;51.468;7.146;2023-04-06T14:21:54;25.50;34.40
53314;DHT22;39202;51.468;7.146;2023-04-06T14:26:56;25.50;34.40
53314;DHT22;39202;51.468;7.146;2023-04-06T14:31:59;25.40;34.50
53314;DHT22;39202;51.468;7.146;2023-04-06T14:37:01;25.40;34.50
53314;DHT22;39202;51.468;7.146;2023-04-06T14:42:03;25.30;34.50
53314;DHT22;39202;51.468;7.146;2023-04-06T14:47:06;25.30;34.50
53314;DHT22;39202;51.468;7.146;2023-04-06T14:52:08;25.30;34.60
53314;DHT22;39202;51.468;7.146;2023-04-06T14:57:10;25.30;34.60
53314;DHT22;39202;51.468;7.146;2023-04-06T15:02:13;25.20;34.60
53314;DHT22;39202;51.468;7.146;2023-04-06T15:07:15;25.20;34.70
53314;DHT22;39202;51.468;7.146;2023-04-06T15:12:18;25.20;34.70
53314;DHT22;39202;51.468;7.146;2023-04-06T15:17:21;25.10;34.70
53314;DHT22;39202;51.468;7.146;2023-04-06T15:22:22;25.10;34.80
53314;DHT22;39202;51.468;7.146;2023-04-06T15:27:24;25.10;34.80
53314;DHT22;39202;51.468;7.146;2023-04-06T15:32:27;25.10;34.80
53314;DHT22;39202;51.468;7.146;2023-04-06T15:37:29;25.00;34.90
53314;DHT22;39202;51.468;7.146;2023-04-06T15:42:31;25.00;34.90
53314;DHT22;39202;51.468;7.146;2023-04-06T15:47:34;25.00;34.90
53314;DHT22;39202;51.468;7.146;2023-04-06T15:52:36;25.00;34.90
53314;DHT22;39202;51.468;7.146;2023-04-06T15:57:38;25.00;34.90
53314;DHT22;39202;51.468;7.146;2023-04-06T16:02:42;24.90;35.00
53314;DHT22;39202;51.468;7.146;2023-04-06T16:07:43;24.90;35.00
53314;DHT22;39202;51.468;7.146;2023-04-06T16:12:45;24.80;35.00
53314;DHT22;39202;51.468;7.146;2023-04-06T16:17:48;24.80;35.00
53314;DHT22;39202;51.468;7.146;2023-04-06T16:22:51;24.80;35.10
53314;DHT22;39202;51.468;7.146;2023-04-06T16:27:52;24.80;35.10
53314;DHT22;39202;51.468;7.146;2023-04-06T16:32:56;24.80;35.20
53314;DHT22;39202;51.468;7.146;2023-04-06T16:37:57;24.70;35.20
53314;DHT22;39202;51.468;7.146;2023-04-06T16:43:00;24.70;35.50
53314;DHT22;39202;51.468;7.146;2023-04-06T16:48:03;24.70;37.50
53314;DHT22;39202;51.468;7.146;2023-04-06T16:53:06;24.60;39.60
53314;DHT22;39202;51.468;7.146;2023-04-06T16:58:08;24.60;41.40
53314;DHT22;39202;51.468;7.146;2023-04-06T17:08:13;24.50;34.80
53314;DHT22;39202;51.468;7.146;2023-04-06T17:13:16;24.50;35.40
53314;DHT22;39202;51.468;7.146;2023-04-06T17:18:19;24.50;35.40
53314;DHT22;39202;51.468;7.146;2023-04-06T17:23:21;24.50;35.50
53314;DHT22;39202;51.468;7.146;2023-04-06T17:28:23;24.40;35.50
53314;DHT22;39202;51.468;7.146;2023-04-06T17:33:27;24.40;35.50
53314;DHT22;39202;51.468;7.146;2023-04-06T17:38:31;24.40;35.60
53314;DHT22;39202;51.468;7.146;2023-04-06T17:43:33;24.40;35.60
53314;DHT22;39202;51.468;7.146;2023-04-06T17:48:36;24.30;35.60
53314;DHT22;39202;51.468;7.146;2023-04-06T17:53:38;24.30;35.60
53314;DHT22;39202;51.468;7.146;2023-04-06T17:58:40;24.20;35.60
53314;DHT22;39202;51.468;7.146;2023-04-06T18:03:43;24.20;35.70
53314;DHT22;39202;51.468;7.146;2023-04-06T18:08:45;24.20;35.70
53314;DHT22;39202;51.468;7.146;2023-04-06T18:13:47;24.20;35.70
53314;DHT22;39202;51.468;7.146;2023-04-06T18:18:51;24.20;35.80
53314;DHT22;39202;51.468;7.146;2023-04-06T18:23:53;24.10;35.80
53314;DHT22;39202;51.468;7.146;2023-04-06T18:28:54;24.10;35.80
53314;DHT22;39202;51.468;7.146;2023-04-06T18:33:58;24.10;35.80
53314;DHT22;39202;51.468;7.146;2023-04-06T18:39:01;24.00;35.80
53314;DHT22;39202;51.468;7.146;2023-04-06T18:44:03;24.00;35.80
53314;DHT22;39202;51.468;7.146;2023-04-06T18:49:06;24.00;35.90
53314;DHT22;39202;51.468;7.146;2023-04-06T18:54:08;24.00;35.90
53314;DHT22;39202;51.468;7.146;2023-04-06T18:59:10;24.00;35.90
53314;DHT22;39202;51.468;7.146;2023-04-06T19:04:14;24.00;35.90
53314;DHT22;39202;51.468;7.146;2023-04-06T19:09:15;24.00;36.00
53314;DHT22;39202;51.468;7.146;2023-04-06T19:14:17;23.90;35.90
53314;DHT22;39202;51.468;7.146;2023-04-06T19:19:21;23.90;36.00
53314;DHT22;39202;51.468;7.146;2023-04-06T19:24:22;23.90;36.10
53314;DHT22;39202;51.468;7.146;2023-04-06T19:29:25;23.80;36.00
53314;DHT22;39202;51.468;7.146;2023-04-06T19:34:28;23.80;36.10
53314;DHT22;39202;51.468;7.146;2023-04-06T19:39:30;23.80;36.10
53314;DHT22;39202;51.468;7.146;2023-04-06T19:44:32;23.80;36.10
53314;DHT22;39202;51.468;7.146;2023-04-06T19:49:36;23.80;36.10
53314;DHT22;39202;51.468;7.146;2023-04-06T19:54:40;23.70;36.10
53314;DHT22;39202;51.468;7.146;2023-04-06T19:59:42;23.70;36.20
53314;DHT22;39202;51.468;7.146;2023-04-06T20:04:45;23.70;36.20
53314;DHT22;39202;51.468;7.146;2023-04-06T20:09:47;23.70;36.30
53314;DHT22;39202;51.468;7.146;2023-04-06T20:14:49;23.70;36.20
53314;DHT22;39202;51.468;7.146;2023-04-06T20:19:53;23.70;36.30
53314;DHT22;39202;51.468;7.146;2023-04-06T20:24:54;23.60;36.30
53314;DHT22;39202;51.468;7.146;2023-04-06T20:29:56;23.60;36.30
53314;DHT22;39202;51.468;7.146;2023-04-06T20:34:59;23.60;36.30
53314;DHT22;39202;51.468;7.146;2023-04-06T20:40:01;23.60;36.40
53314;DHT22;39202;51.468;7.146;2023-04-06T20:45:04;23.50;36.30
53314;DHT22;39202;51.468;7.146;2023-04-06T20:50:08;23.50;36.40
53314;DHT22;39202;51.468;7.146;2023-04-06T20:55:10;23.50;36.40
53314;DHT22;39202;51.468;7.146;2023-04-06T21:00:12;23.50;36.40
53314;DHT22;39202;51.468;7.146;2023-04-06T21:05:15;23.50;36.40
53314;DHT22;39202;51.468;7.146;2023-04-06T21:10:17;23.50;36.50
53314;DHT22;39202;51.468;7.146;2023-04-06T21:15:19;23.40;36.40
53314;DHT22;39202;51.468;7.146;2023-04-06T21:20:22;23.40;36.40
53314;DHT22;39202;51.468;7.146;2023-04-06T21:25:24;23.40;36.50
53314;DHT22;39202;51.468;7.146;2023-04-06T21:30:25;23.40;36.50
53314;DHT22;39202;51.468;7.146;2023-04-06T21:35:29;23.40;36.50
53314;DHT22;39202;51.468;7.146;2023-04-06T21:40:30;23.40;36.60
53314;DHT22;39202;51.468;7.146;2023-04-06T21:45:32;23.40;36.60
53314;DHT22;39202;51.468;7.146;2023-04-06T21:50:39;23.30;36.60
53314;DHT22;39202;51.468;7.146;2023-04-06T21:55:41;23.30;36.60
53314;DHT22;39202;51.468;7.146;2023-04-06T22:00:43;23.30;36.60
53314;DHT22;39202;51.468;7.146;2023-04-06T22:05:47;23.30;36.60
53314;DHT22;39202;51.468;7.146;2023-04-06T22:10:48;23.30;36.70
53314;DHT22;39202;51.468;7.146;2023-04-06T22:15:50;23.30;36.70
53314;DHT22;39202;51.468;7.146;2023-04-06T22:20:53;23.30;36.70
53314;DHT22;39202;51.468;7.146;2023-04-06T22:25:55;23.20;36.70
53314;DHT22;39202;51.468;7.146;2023-04-06T22:30:57;23.20;36.70
53314;DHT22;39202;51.468;7.146;2023-04-06T22:36:00;23.20;36.70
53314;DHT22;39202;51.468;7.146;2023-04-06T22:41:02;23.20;36.80
53314;DHT22;39202;51.468;7.146;2023-04-06T22:46:04;23.20;36.80
53314;DHT22;39202;51.468;7.146;2023-04-06T22:51:07;23.20;36.80
53314;DHT22;39202;51.468;7.146;2023-04-06T22:56:08;23.20;36.80
53314;DHT22;39202;51.468;7.146;2023-04-06T23:01:10;23.20;36.80
53314;DHT22;39202;51.468;7.146;2023-04-06T23:06:13;23.20;36.90
53314;DHT22;39202;51.468;7.146;2023-04-06T23:11:15;23.10;36.90
53314;DHT22;39202;51.468;7.146;2023-04-06T23:16:17;23.10;36.90
53314;DHT22;39202;51.468;7.146;2023-04-06T23:21:20;23.10;36.90
53314;DHT22;39202;51.468;7.146;2023-04-06T23:26:22;23.10;36.90
53314;DHT22;39202;51.468;7.146;2023-04-06T23:31:24;23.10;36.90
53314;DHT22;39202;51.468;7.146;2023-04-06T23:36:27;23.10;36.90
53314;DHT22;39202;51.468;7.146;2023-04-06T23:41:29;23.10;37.00
53314;DHT22;39202;51.468;7.146;2023-04-06T23:46:31;23.10;37.00
53314;DHT22;39202;51.468;7.146;2023-04-06T23:51:34;23.00;37.00
53314;DHT22;39202;51.468;7.146;2023-04-06T23:56:36;23.00;37.00
